Time;durP1;ratioP1;P1;durP2;ratioP2;P2;SDS_P1;SDS_P2;PMS_P1;PMS_P2;Temp;Humidity;BMP_temperature;BMP_pressure;BME280_temperature;BME280_humidity;BME280_pressure;Samples;Min_cycle;Max_cycle;Signal;HPM_P1;HPM_P2
2021/09/24 00:01:14;;;;;;;10.35;7.00;;;;;;;;;;5114578;28;20023;-73
2021/09/24 00:03:40;;;;;;;9.68;7.68;;;;;;;;;;5111983;28;20020;-73
2021/09/24 00:06:06;;;;;;;10.13;7.50;;;;;;;;;;5111296;28;20483;-72
2021/09/24 00:08:33;;;;;;;12.52;7.90;;;;;;;;;;5111676;28;20109;-73
2021/09/24 00:10:59;;;;;;;10.93;7.72;;;;;;;;;;5110162;28;20051;-73
2021/09/24 00:13:25;;;;;;;13.68;8.32;;;;;;;;;;5113860;28;20049;-73
2021/09/24 00:15:51;;;;;;;11.93;8.75;;;;;;;;;;5111951;28;20035;-73
2021/09/24 00:18:18;;;;;;;11.00;8.20;;;;;;;;;;5102167;28;20024;-73
2021/09/24 00:20:45;;;;;;;10.20;8.50;;;;;;;;;;5104173;28;20111;-73
2021/09/24 00:23:11;;;;;;;11.02;8.63;;;;;;;;;;5111568;28;20016;-73
2021/09/24 00:25:37;;;;;;;13.93;9.00;;;;;;;;;;5111804;28;20084;-73
2021/09/24 00:28:05;;;;;;;10.57;8.70;;;;;;;;;;5113611;28;20442;-73
2021/09/24 00:30:31;;;;;;;14.05;9.30;;;;;;;;;;5111124;28;20027;-73
2021/09/24 00:32:57;;;;;;;13.93;8.70;;;;;;;;;;5110991;28;20476;-73
2021/09/24 00:35:23;;;;;;;12.60;9.55;;;;;;;;;;5110781;28;20173;-73
2021/09/24 00:37:49;;;;;;;11.77;9.23;;;;;;;;;;5110560;28;20047;-73
2021/09/24 00:40:15;;;;;;;15.32;9.35;;;;;;;;;;5113949;28;20084;-73
2021/09/24 00:42:41;;;;;;;10.55;8.82;;;;;;;;;;5110951;28;20104;-73
2021/09/24 00:45:07;;;;;;;11.07;8.30;;;;;;;;;;5103455;28;20107;-73
2021/09/24 00:47:33;;;;;;;11.35;8.57;;;;;;;;;;5098575;28;20427;-73
2021/09/24 00:50:00;;;;;;;12.95;9.07;;;;;;;;;;5097322;28;20020;-73
2021/09/24 00:52:28;;;;;;;11.55;9.20;;;;;;;;;;5112963;28;20051;-73
2021/09/24 00:54:54;;;;;;;11.68;9.30;;;;;;;;;;5112642;28;20379;-73
2021/09/24 00:57:21;;;;;;;11.40;8.75;;;;;;;;;;5109676;28;20526;-73
2021/09/24 00:59:48;;;;;;;10.80;8.95;;;;;;;;;;5110382;28;20106;-73
2021/09/24 01:02:14;;;;;;;11.27;9.00;;;;;;;;;;5110539;28;20069;-73
2021/09/24 01:04:40;;;;;;;13.13;9.05;;;;;;;;;;5111011;28;20402;-73
2021/09/24 01:07:07;;;;;;;12.50;8.82;;;;;;;;;;5112885;28;20429;-74
2021/09/24 01:09:33;;;;;;;10.82;9.13;;;;;;;;;;5110178;28;20020;-73
2021/09/24 01:11:59;;;;;;;13.48;9.30;;;;;;;;;;5110407;28;20110;-73
2021/09/24 01:14:28;;;;;;;10.93;8.75;;;;;;;;;;5109697;28;20026;-73
2021/09/24 01:16:55;;;;;;;14.48;9.85;;;;;;;;;;5109660;28;20036;-73
2021/09/24 01:19:21;;;;;;;10.93;9.00;;;;;;;;;;5095700;28;20032;-73
2021/09/24 01:21:47;;;;;;;12.40;8.82;;;;;;;;;;5110251;28;20214;-73
2021/09/24 01:24:13;;;;;;;13.32;9.93;;;;;;;;;;5109544;28;20039;-73
2021/09/24 01:26:49;;;;;;;15.95;9.90;;;;;;;;;;5109823;28;20031;-73
2021/09/24 01:29:15;;;;;;;16.05;11.13;;;;;;;;;;5098262;28;20038;-73
2021/09/24 01:31:42;;;;;;;15.23;11.23;;;;;;;;;;5110309;28;20019;-73
2021/09/24 01:34:08;;;;;;;16.15;10.57;;;;;;;;;;5108779;28;20032;-73
2021/09/24 01:36:34;;;;;;;21.25;11.13;;;;;;;;;;5109689;28;20035;-73
2021/09/24 01:39:07;;;;;;;18.50;10.68;;;;;;;;;;5109500;28;20027;-73
2021/09/24 01:41:33;;;;;;;13.48;10.10;;;;;;;;;;5109280;28;20024;-73
2021/09/24 01:43:59;;;;;;;13.65;9.80;;;;;;;;;;5109247;28;20425;-73
2021/09/24 01:46:25;;;;;;;19.00;11.50;;;;;;;;;;5112269;28;20024;-73
2021/09/24 01:48:51;;;;;;;12.20;9.82;;;;;;;;;;5097053;28;20035;-73
2021/09/24 01:51:17;;;;;;;13.98;9.32;;;;;;;;;;5107034;28;20073;-72
2021/09/24 01:53:43;;;;;;;11.63;8.10;;;;;;;;;;5109588;28;20475;-73
2021/09/24 01:56:09;;;;;;;13.25;9.32;;;;;;;;;;5109159;28;20115;-73
2021/09/24 01:58:35;;;;;;;15.25;10.45;;;;;;;;;;5109504;28;20102;-73
2021/09/24 02:01:01;;;;;;;15.43;10.88;;;;;;;;;;5112266;28;20034;-73
2021/09/24 02:03:27;;;;;;;12.85;10.30;;;;;;;;;;5108936;28;20111;-73
2021/09/24 02:05:53;;;;;;;19.23;11.35;;;;;;;;;;5109416;28;20031;-72
2021/09/24 02:08:19;;;;;;;15.88;11.40;;;;;;;;;;5108825;28;20030;-73
2021/09/24 02:10:45;;;;;;;15.10;11.50;;;;;;;;;;5108732;28;20023;-72
2021/09/24 02:13:11;;;;;;;13.75;9.93;;;;;;;;;;5112418;28;20056;-72
2021/09/24 02:15:37;;;;;;;13.35;9.57;;;;;;;;;;5109679;28;20047;-72
2021/09/24 02:18:03;;;;;;;15.80;10.30;;;;;;;;;;5106715;28;20054;-72
2021/09/24 02:20:29;;;;;;;13.40;10.38;;;;;;;;;;5099728;28;20024;-73
2021/09/24 02:22:55;;;;;;;15.68;10.60;;;;;;;;;;5109034;28;20027;-72
2021/09/24 02:25:21;;;;;;;14.57;10.73;;;;;;;;;;5109885;28;20032;-72
2021/09/24 02:27:47;;;;;;;16.92;10.10;;;;;;;;;;5108761;28;20526;-72
2021/09/24 02:30:13;;;;;;;13.85;10.98;;;;;;;;;;5097461;28;20028;-73
2021/09/24 02:32:39;;;;;;;14.13;11.05;;;;;;;;;;5104844;28;20027;-73
2021/09/24 02:35:05;;;;;;;15.00;11.07;;;;;;;;;;5108975;28;20028;-72
2021/09/24 02:37:31;;;;;;;12.45;9.68;;;;;;;;;;5110517;28;20046;-72
2021/09/24 02:39:57;;;;;;;16.05;11.30;;;;;;;;;;5110574;28;20019;-72
2021/09/24 02:42:23;;;;;;;14.35;9.73;;;;;;;;;;5108569;28;20453;-72
2021/09/24 02:44:49;;;;;;;13.98;9.90;;;;;;;;;;5107974;28;20028;-73
2021/09/24 02:47:15;;;;;;;13.63;10.45;;;;;;;;;;5109969;28;20383;-72
2021/09/24 02:49:42;;;;;;;14.30;10.40;;;;;;;;;;5108653;28;20038;-72
2021/09/24 02:52:08;;;;;;;15.77;11.38;;;;;;;;;;5112402;28;20555;-73
2021/09/24 02:54:34;;;;;;;17.13;12.38;;;;;;;;;;5107404;28;20102;-72
2021/09/24 02:57:01;;;;;;;17.05;12.50;;;;;;;;;;5107917;28;20100;-72
2021/09/24 02:59:27;;;;;;;16.33;11.82;;;;;;;;;;5107967;28;20022;-72
2021/09/24 03:01:55;;;;;;;16.08;11.00;;;;;;;;;;5108317;28;20020;-73
2021/09/24 03:04:21;;;;;;;14.68;10.45;;;;;;;;;;5109973;28;20045;-72
2021/09/24 03:06:47;;;;;;;15.50;11.88;;;;;;;;;;5114027;28;20114;-73
2021/09/24 03:09:13;;;;;;;14.70;10.70;;;;;;;;;;5111981;28;20453;-72
2021/09/24 03:11:39;;;;;;;16.38;11.73;;;;;;;;;;5112583;28;20562;-72
2021/09/24 03:14:05;;;;;;;15.40;11.50;;;;;;;;;;5112420;28;20019;-72
2021/09/24 03:16:31;;;;;;;18.80;12.48;;;;;;;;;;5113723;28;20056;-72
2021/09/24 03:18:57;;;;;;;16.10;11.75;;;;;;;;;;5113603;28;20415;-72
2021/09/24 03:21:23;;;;;;;17.40;11.73;;;;;;;;;;5113705;28;20032;-72
2021/09/24 03:23:49;;;;;;;18.75;11.27;;;;;;;;;;5108407;28;20084;-72
2021/09/24 03:26:17;;;;;;;17.15;11.70;;;;;;;;;;5111484;28;20417;-68
2021/09/24 03:28:43;;;;;;;15.13;9.88;;;;;;;;;;5111617;28;20047;-68
2021/09/24 03:31:09;;;;;;;14.52;10.30;;;;;;;;;;5115701;28;20033;-68
2021/09/24 03:33:35;;;;;;;13.93;10.20;;;;;;;;;;5111332;28;20058;-68
2021/09/24 03:36:02;;;;;;;12.82;10.20;;;;;;;;;;5111239;28;20039;-68
2021/09/24 03:38:28;;;;;;;15.40;11.00;;;;;;;;;;5111567;28;20028;-68
2021/09/24 03:40:54;;;;;;;18.23;11.00;;;;;;;;;;5103802;28;20027;-70
2021/09/24 03:43:20;;;;;;;14.98;10.15;;;;;;;;;;5108051;28;20549;-67
2021/09/24 03:45:46;;;;;;;17.13;10.75;;;;;;;;;;5107583;28;20062;-68
2021/09/24 03:48:12;;;;;;;17.63;11.38;;;;;;;;;;5110690;28;20059;-68
2021/09/24 03:50:37;;;;;;;14.65;10.80;;;;;;;;;;5111211;28;20039;-67
2021/09/24 03:53:03;;;;;;;17.58;11.63;;;;;;;;;;5111545;28;20058;-68
2021/09/24 03:55:29;;;;;;;17.15;11.32;;;;;;;;;;5113470;28;20061;-68
2021/09/24 03:57:55;;;;;;;16.23;10.52;;;;;;;;;;5113576;28;20068;-68
2021/09/24 04:00:21;;;;;;;16.10;10.43;;;;;;;;;;5111339;28;20031;-68
2021/09/24 04:02:48;;;;;;;16.35;10.88;;;;;;;;;;5105140;28;20024;-68
2021/09/24 04:05:14;;;;;;;18.10;11.90;;;;;;;;;;5111406;28;20027;-68
2021/09/24 04:07:40;;;;;;;21.17;13.45;;;;;;;;;;5095757;28;20027;-68
2021/09/24 04:10:06;;;;;;;19.52;12.95;;;;;;;;;;5114286;28;20490;-68
2021/09/24 04:12:32;;;;;;;17.13;12.38;;;;;;;;;;5110720;28;20051;-68
2021/09/24 04:14:58;;;;;;;17.00;11.35;;;;;;;;;;5111239;28;20035;-68
2021/09/24 04:17:24;;;;;;;15.70;11.02;;;;;;;;;;5110087;28;20026;-68
2021/09/24 04:19:50;;;;;;;21.23;12.25;;;;;;;;;;5111029;28;20077;-68
2021/09/24 04:22:16;;;;;;;19.15;12.27;;;;;;;;;;5113444;28;20031;-68
2021/09/24 04:24:42;;;;;;;15.73;12.13;;;;;;;;;;5108508;28;20030;-67
2021/09/24 04:27:08;;;;;;;18.75;12.40;;;;;;;;;;5110705;28;20035;-68
2021/09/24 04:29:34;;;;;;;15.32;11.45;;;;;;;;;;5110939;28;20032;-68
2021/09/24 04:32:00;;;;;;;16.80;10.95;;;;;;;;;;5111012;28;20028;-70
2021/09/24 04:34:26;;;;;;;18.00;10.07;;;;;;;;;;5108132;28;20026;-70
2021/09/24 04:36:53;;;;;;;17.33;9.95;;;;;;;;;;5111795;28;20440;-70
2021/09/24 04:39:19;;;;;;;15.15;10.55;;;;;;;;;;5110659;28;20058;-70
2021/09/24 04:41:45;;;;;;;14.57;10.10;;;;;;;;;;5110485;28;20463;-70
2021/09/24 04:44:11;;;;;;;13.50;10.38;;;;;;;;;;5110407;28;20019;-70
2021/09/24 04:46:37;;;;;;;14.32;9.70;;;;;;;;;;5111962;28;20102;-70
2021/09/24 04:49:03;;;;;;;14.35;10.63;;;;;;;;;;5111838;28;20390;-70
2021/09/24 04:51:29;;;;;;;13.40;10.88;;;;;;;;;;5110084;28;20080;-71
2021/09/24 04:53:55;;;;;;;16.83;10.27;;;;;;;;;;5110650;28;20039;-70
2021/09/24 04:56:21;;;;;;;14.00;10.05;;;;;;;;;;5104456;28;20046;-70
2021/09/24 04:58:47;;;;;;;13.23;8.77;;;;;;;;;;5110500;28;20020;-70
2021/09/24 05:01:13;;;;;;;12.95;10.15;;;;;;;;;;5112182;28;20076;-70
2021/09/24 05:03:39;;;;;;;14.80;10.13;;;;;;;;;;5111004;28;20019;-70
2021/09/24 05:06:05;;;;;;;15.25;10.27;;;;;;;;;;5109394;28;20091;-71
2021/09/24 05:08:31;;;;;;;17.65;11.05;;;;;;;;;;5110356;28;20031;-71
2021/09/24 05:10:57;;;;;;;14.32;10.70;;;;;;;;;;5110094;28;20024;-71
2021/09/24 05:13:23;;;;;;;20.85;11.55;;;;;;;;;;5112247;28;20116;-71
2021/09/24 05:15:49;;;;;;;13.77;10.63;;;;;;;;;;5109722;28;20505;-71
2021/09/24 05:18:15;;;;;;;15.52;10.23;;;;;;;;;;5109955;28;20031;-70
2021/09/24 05:20:41;;;;;;;14.80;10.35;;;;;;;;;;5103677;28;20498;-63
2021/09/24 05:23:07;;;;;;;14.27;10.35;;;;;;;;;;5107477;28;20024;-62
2021/09/24 05:25:33;;;;;;;15.98;10.93;;;;;;;;;;5110484;28;20535;-62
2021/09/24 05:27:59;;;;;;;17.58;9.95;;;;;;;;;;5111130;28;20054;-61
2021/09/24 05:30:25;;;;;;;16.05;10.13;;;;;;;;;;5111165;28;20031;-61
2021/09/24 05:32:51;;;;;;;15.38;9.75;;;;;;;;;;5109692;28;20398;-61
2021/09/24 05:35:17;;;;;;;14.15;9.80;;;;;;;;;;5108943;28;20067;-61
2021/09/24 05:37:44;;;;;;;15.15;10.82;;;;;;;;;;5107606;28;20023;-61
2021/09/24 05:40:10;;;;;;;17.67;11.07;;;;;;;;;;5111042;28;20106;-61
2021/09/24 05:42:36;;;;;;;16.25;11.20;;;;;;;;;;5108014;28;20028;-62
2021/09/24 05:45:02;;;;;;;14.02;10.35;;;;;;;;;;5108972;28;20092;-62
2021/09/24 05:47:28;;;;;;;13.77;8.57;;;;;;;;;;5108648;28;20032;-61
2021/09/24 05:49:55;;;;;;;11.00;7.82;;;;;;;;;;5108827;28;20031;-61
2021/09/24 05:52:21;;;;;;;12.15;8.43;;;;;;;;;;5110970;28;20111;-61
2021/09/24 05:54:47;;;;;;;14.48;8.70;;;;;;;;;;5108721;28;20028;-62
2021/09/24 05:57:13;;;;;;;16.42;9.35;;;;;;;;;;5106910;28;20035;-61
2021/09/24 05:59:39;;;;;;;17.65;9.50;;;;;;;;;;5106893;28;20024;-61
2021/09/24 06:02:05;;;;;;;13.18;9.13;;;;;;;;;;5107238;28;20391;-62
2021/09/24 06:04:31;;;;;;;15.43;9.90;;;;;;;;;;5110108;28;20382;-62
2021/09/24 06:06:57;;;;;;;13.20;9.65;;;;;;;;;;5110426;28;20019;-61
2021/09/24 06:09:23;;;;;;;15.32;9.98;;;;;;;;;;5108675;28;20050;-61
2021/09/24 06:11:49;;;;;;;13.82;9.15;;;;;;;;;;5108545;28;20032;-62
2021/09/24 06:14:16;;;;;;;13.68;9.48;;;;;;;;;;5109377;28;20031;-62
2021/09/24 06:16:42;;;;;;;12.97;8.57;;;;;;;;;;5109040;28;20107;-62
2021/09/24 06:19:09;;;;;;;14.27;9.43;;;;;;;;;;5107685;28;20058;-61
2021/09/24 06:21:36;;;;;;;12.43;9.23;;;;;;;;;;5108527;28;20034;-61
2021/09/24 06:24:02;;;;;;;13.15;8.98;;;;;;;;;;5105507;28;20055;-61
2021/09/24 06:26:28;;;;;;;11.90;8.90;;;;;;;;;;5097372;28;20085;-62
2021/09/24 06:28:54;;;;;;;13.55;9.45;;;;;;;;;;5090418;28;20048;-62
2021/09/24 06:31:20;;;;;;;14.43;9.70;;;;;;;;;;5109566;28;20063;-62
2021/09/24 06:33:47;;;;;;;13.40;8.55;;;;;;;;;;5109413;28;20138;-62
2021/09/24 06:36:17;;;;;;;30.02;7.80;;;;;;;;;;5108568;28;20039;-60
2021/09/24 06:38:43;;;;;;;17.70;6.55;;;;;;;;;;5108058;28;20383;-63
2021/09/24 06:41:09;;;;;;;17.70;5.20;;;;;;;;;;5107761;28;20023;-62
2021/09/24 06:43:35;;;;;;;11.10;4.97;;;;;;;;;;5109422;28;20517;-61
2021/09/24 06:46:01;;;;;;;11.00;4.43;;;;;;;;;;5111371;28;20028;-61
2021/09/24 06:48:27;;;;;;;6.70;4.05;;;;;;;;;;5107031;28;20035;-63
2021/09/24 06:50:53;;;;;;;9.43;4.15;;;;;;;;;;5107808;28;20032;-62
2021/09/24 06:53:19;;;;;;;6.25;3.85;;;;;;;;;;5108293;28;20026;-62
2021/09/24 06:55:45;;;;;;;4.80;3.40;;;;;;;;;;5108330;28;20407;-62
2021/09/24 06:58:11;;;;;;;6.00;3.67;;;;;;;;;;5111995;28;20030;-63
2021/09/24 07:00:37;;;;;;;5.18;3.45;;;;;;;;;;5108640;28;20037;-62
2021/09/24 07:03:03;;;;;;;8.90;3.58;;;;;;;;;;5107977;28;20030;-62
2021/09/24 07:05:29;;;;;;;8.80;3.50;;;;;;;;;;5108367;28;20019;-62
2021/09/24 07:07:55;;;;;;;6.18;3.30;;;;;;;;;;5108378;28;20048;-62
2021/09/24 07:10:21;;;;;;;8.25;3.53;;;;;;;;;;5110523;28;20055;-62
2021/09/24 07:12:48;;;;;;;6.88;3.40;;;;;;;;;;5109505;28;20020;-62
2021/09/24 07:15:15;;;;;;;8.15;3.25;;;;;;;;;;5105365;28;20031;-62
2021/09/24 07:17:41;;;;;;;6.50;3.15;;;;;;;;;;5108314;28;20475;-62
2021/09/24 07:20:07;;;;;;;7.15;3.35;;;;;;;;;;5107811;28;20411;-62
2021/09/24 07:22:33;;;;;;;4.68;2.65;;;;;;;;;;5109296;28;20024;-62
2021/09/24 07:24:59;;;;;;;4.97;2.50;;;;;;;;;;5106928;28;20028;-62
2021/09/24 07:27:25;;;;;;;4.50;2.20;;;;;;;;;;5107917;28;20046;-62
2021/09/24 07:29:52;;;;;;;3.78;2.40;;;;;;;;;;5107485;28;20039;-62
2021/09/24 07:32:18;;;;;;;4.35;2.60;;;;;;;;;;5108214;28;20015;-62
2021/09/24 07:34:44;;;;;;;4.00;2.58;;;;;;;;;;5108015;28;20032;-62
2021/09/24 07:37:13;;;;;;;4.75;2.60;;;;;;;;;;5111886;28;20395;-62
2021/09/24 07:39:39;;;;;;;5.82;2.70;;;;;;;;;;5109450;28;20035;-62
2021/09/24 07:42:05;;;;;;;13.60;2.72;;;;;;;;;;5100992;28;20035;-62
2021/09/24 07:44:31;;;;;;;4.72;2.53;;;;;;;;;;5097223;28;20028;-62
2021/09/24 07:46:57;;;;;;;3.53;2.20;;;;;;;;;;5108082;28;20024;-62
2021/09/24 07:49:23;;;;;;;4.57;2.47;;;;;;;;;;5110524;28;20024;-62
2021/09/24 07:51:49;;;;;;;5.47;2.47;;;;;;;;;;5111516;28;20024;-62
2021/09/24 07:54:15;;;;;;;6.13;2.30;;;;;;;;;;5111837;28;20489;-62
2021/09/24 07:56:41;;;;;;;4.53;2.50;;;;;;;;;;5111415;28;20042;-62
2021/09/24 07:59:08;;;;;;;3.70;2.50;;;;;;;;;;5111260;28;20395;-62
2021/09/24 08:01:34;;;;;;;4.70;2.40;;;;;;;;;;5113212;28;20028;-62
2021/09/24 08:03:59;;;;;;;5.32;2.53;;;;;;;;;;5114076;28;20031;-62
2021/09/24 08:06:25;;;;;;;6.97;2.40;;;;;;;;;;5111101;28;20031;-62
2021/09/24 08:08:51;;;;;;;6.72;2.38;;;;;;;;;;5109789;28;20475;-62
2021/09/24 08:11:17;;;;;;;5.95;2.40;;;;;;;;;;5110017;28;20031;-62
2021/09/24 08:13:43;;;;;;;4.20;2.20;;;;;;;;;;5111305;28;20027;-62
2021/09/24 08:16:09;;;;;;;3.35;2.17;;;;;;;;;;5115151;28;20038;-62
2021/09/24 08:18:37;;;;;;;4.18;2.03;;;;;;;;;;5110956;28;20114;-62
2021/09/24 08:21:03;;;;;;;4.20;2.10;;;;;;;;;;5111445;28;20027;-62
2021/09/24 08:23:29;;;;;;;5.90;2.25;;;;;;;;;;5107189;28;20471;-62
2021/09/24 08:25:55;;;;;;;6.18;2.03;;;;;;;;;;5111266;28;20020;-62
2021/09/24 08:28:21;;;;;;;2.88;1.98;;;;;;;;;;5113302;28;20406;-62
2021/09/24 08:30:47;;;;;;;4.03;2.22;;;;;;;;;;5111970;28;20038;-62
2021/09/24 08:33:16;;;;;;;3.35;2.10;;;;;;;;;;5111220;28;20020;-62
2021/09/24 08:35:43;;;;;;;3.17;2.10;;;;;;;;;;5110613;28;20120;-62
2021/09/24 08:38:10;;;;;;;3.40;2.00;;;;;;;;;;5110849;28;20455;-62
2021/09/24 08:40:37;;;;;;;2.78;2.10;;;;;;;;;;5112036;28;20074;-62
2021/09/24 08:43:04;;;;;;;3.72;2.00;;;;;;;;;;5113105;28;20063;-62
2021/09/24 08:45:31;;;;;;;4.28;1.80;;;;;;;;;;5109908;28;20106;-62
2021/09/24 08:47:58;;;;;;;2.75;1.70;;;;;;;;;;5110710;28;20092;-62
2021/09/24 08:50:25;;;;;;;2.60;1.98;;;;;;;;;;5104895;28;20371;-62
2021/09/24 08:52:51;;;;;;;3.50;2.35;;;;;;;;;;5109357;28;20107;-62
2021/09/24 08:55:18;;;;;;;6.47;1.95;;;;;;;;;;5112731;28;20067;-62
2021/09/24 08:57:44;;;;;;;3.45;2.17;;;;;;;;;;5112148;28;20088;-62
2021/09/24 09:00:11;;;;;;;2.85;2.10;;;;;;;;;;5104454;28;20428;-67
2021/09/24 09:02:52;;;;;;;5.55;2.17;;;;;;;;;;5103891;28;20480;-63
2021/09/24 09:05:18;;;;;;;2.47;2.05;;;;;;;;;;5102280;28;20024;-63
2021/09/24 09:07:47;;;;;;;3.45;2.10;;;;;;;;;;5102673;28;20062;-63
2021/09/24 09:10:14;;;;;;;2.47;2.00;;;;;;;;;;5104049;28;20073;-64
2021/09/24 09:12:40;;;;;;;3.08;2.17;;;;;;;;;;5102404;28;20020;-64
2021/09/24 09:15:09;;;;;;;8.40;2.60;;;;;;;;;;5102883;28;20028;-63
2021/09/24 09:17:36;;;;;;;3.63;2.45;;;;;;;;;;5104775;28;20155;-63
2021/09/24 09:20:08;;;;;;;3.88;2.20;;;;;;;;;;5110132;28;20036;-63
2021/09/24 09:22:34;;;;;;;5.25;2.40;;;;;;;;;;5110738;28;20043;-63
2021/09/24 09:25:00;;;;;;;3.95;2.22;;;;;;;;;;5108402;28;20110;-63
2021/09/24 09:27:27;;;;;;;3.35;2.40;;;;;;;;;;5109624;28;20463;-66
2021/09/24 09:30:12;;;;;;;3.90;2.13;;;;;;;;;;5105240;28;20028;-66
2021/09/24 09:32:43;;;;;;;2.95;2.15;;;;;;;;;;5107396;28;20015;-73
2021/09/24 09:35:09;;;;;;;5.05;2.58;;;;;;;;;;5102172;28;20077;-65
2021/09/24 09:37:36;;;;;;;6.78;2.58;;;;;;;;;;5105656;28;20047;-66
2021/09/24 09:40:05;;;;;;;4.22;2.47;;;;;;;;;;5103295;28;20032;-65
2021/09/24 09:42:35;;;;;;;3.78;2.55;;;;;;;;;;5106739;28;20036;-66
2021/09/24 09:45:01;;;;;;;6.40;2.63;;;;;;;;;;5109185;28;20119;-65
2021/09/24 09:47:32;;;;;;;3.80;2.53;;;;;;;;;;5109104;28;20051;-65
2021/09/24 09:50:05;;;;;;;3.83;2.47;;;;;;;;;;5110407;28;20019;-66
2021/09/24 09:52:33;;;;;;;4.03;2.50;;;;;;;;;;5104393;27;20035;-66
2021/09/24 09:55:01;;;;;;;9.25;2.40;;;;;;;;;;5104981;28;20020;-65
2021/09/24 09:57:27;;;;;;;8.57;2.63;;;;;;;;;;5108111;28;20502;-65
2021/09/24 09:59:54;;;;;;;3.33;2.50;;;;;;;;;;5109407;28;20047;-65
2021/09/24 10:02:29;;;;;;;11.65;3.38;;;;;;;;;;5108839;28;20547;-65
2021/09/24 10:04:57;;;;;;;3.97;2.67;;;;;;;;;;5103749;28;20030;-66
2021/09/24 10:07:24;;;;;;;4.93;2.70;;;;;;;;;;5104741;28;20026;-66
2021/09/24 10:10:03;;;;;;;4.53;2.70;;;;;;;;;;5103467;28;20574;-66
2021/09/24 10:12:29;;;;;;;7.35;3.05;;;;;;;;;;5107821;28;20251;-66
2021/09/24 10:14:55;;;;;;;5.38;2.95;;;;;;;;;;5106836;28;20032;-66
2021/09/24 10:17:22;;;;;;;6.43;3.15;;;;;;;;;;5107017;28;20019;-66
2021/09/24 10:19:50;;;;;;;3.42;2.78;;;;;;;;;;5107678;28;20020;-66
2021/09/24 10:22:16;;;;;;;4.35;2.70;;;;;;;;;;5111922;28;20139;-66
2021/09/24 10:24:42;;;;;;;7.78;2.95;;;;;;;;;;5104120;28;20024;-66
2021/09/24 10:27:11;;;;;;;3.40;2.70;;;;;;;;;;5100991;28;20047;-66
2021/09/24 10:29:41;;;;;;;7.07;3.40;;;;;;;;;;5107152;28;20379;-66
2021/09/24 10:32:13;;;;;;;4.47;3.10;;;;;;;;;;5106441;28;20537;-66
2021/09/24 10:34:55;;;;;;;4.57;2.83;;;;;;;;;;5107239;28;20443;-66
2021/09/24 10:37:21;;;;;;;4.47;3.22;;;;;;;;;;5107580;28;20109;-66
2021/09/24 10:39:48;;;;;;;4.85;3.28;;;;;;;;;;5109496;28;20137;-66
2021/09/24 10:42:23;;;;;;;5.35;3.72;;;;;;;;;;5106990;28;20025;-66
2021/09/24 10:45:08;;;;;;;7.95;3.10;;;;;;;;;;5108571;28;20027;-66
2021/09/24 10:47:51;;;;;;;6.10;3.80;;;;;;;;;;5108337;28;20425;-66
2021/09/24 10:50:32;;;;;;;7.88;3.80;;;;;;;;;;5108025;28;20024;-65
2021/09/24 10:53:16;;;;;;;5.97;3.72;;;;;;;;;;5108702;28;20028;-66
2021/09/24 10:55:47;;;;;;;5.85;3.78;;;;;;;;;;5092407;28;20050;-65
2021/09/24 10:58:33;;;;;;;6.30;3.40;;;;;;;;;;5107645;28;20092;-66
2021/09/24 11:01:14;;;;;;;5.85;3.83;;;;;;;;;;5111076;28;20024;-65
2021/09/24 11:03:59;;;;;;;9.15;3.65;;;;;;;;;;5108670;28;20031;-65
2021/09/24 11:06:40;;;;;;;5.13;3.45;;;;;;;;;;5108212;28;20035;-65
2021/09/24 11:09:07;;;;;;;5.43;3.92;;;;;;;;;;5107472;28;20039;-65
2021/09/24 11:11:39;;;;;;;7.90;4.20;;;;;;;;;;5108209;28;20030;-65
2021/09/24 11:14:24;;;;;;;5.43;4.28;;;;;;;;;;5108146;28;20012;-65
2021/09/24 11:16:53;;;;;;;5.93;4.00;;;;;;;;;;5092756;28;20105;-65
2021/09/24 11:19:35;;;;;;;6.13;4.00;;;;;;;;;;5110442;28;20058;-65
2021/09/24 11:22:04;;;;;;;6.60;3.70;;;;;;;;;;5110725;28;20059;-65
2021/09/24 11:24:31;;;;;;;6.43;3.30;;;;;;;;;;5104154;28;20562;-65
2021/09/24 11:26:58;;;;;;;4.78;3.72;;;;;;;;;;5110464;28;20028;-65
2021/09/24 11:29:27;;;;;;;6.18;3.75;;;;;;;;;;5104999;28;20383;-65
2021/09/24 11:31:53;;;;;;;6.50;4.00;;;;;;;;;;5102280;28;20388;-65
2021/09/24 11:34:39;;;;;;;5.78;3.95;;;;;;;;;;5105749;28;20019;-65
2021/09/24 11:37:09;;;;;;;6.28;3.65;;;;;;;;;;5104118;28;20032;-65
2021/09/24 11:39:36;;;;;;;4.25;3.47;;;;;;;;;;5113509;28;20040;-65
2021/09/24 11:42:03;;;;;;;5.10;3.80;;;;;;;;;;5111333;28;20039;-65
2021/09/24 11:44:29;;;;;;;5.90;4.07;;;;;;;;;;5111819;27;20115;-65
2021/09/24 11:46:55;;;;;;;6.03;3.63;;;;;;;;;;5109508;28;20028;-65
2021/09/24 11:49:21;;;;;;;4.45;3.60;;;;;;;;;;5112494;28;20039;-65
2021/09/24 11:51:57;;;;;;;5.78;3.65;;;;;;;;;;5110918;28;20080;-65
2021/09/24 11:54:23;;;;;;;6.07;3.83;;;;;;;;;;5109532;28;20047;-66
2021/09/24 11:56:49;;;;;;;5.85;3.60;;;;;;;;;;5110451;28;20104;-65
2021/09/24 11:59:15;;;;;;;6.28;4.35;;;;;;;;;;5110330;28;20511;-65
2021/09/24 12:01:42;;;;;;;4.82;3.90;;;;;;;;;;5110564;28;20027;-65
2021/09/24 12:04:09;;;;;;;6.55;3.83;;;;;;;;;;5110616;28;20023;-65
2021/09/24 12:06:35;;;;;;;6.35;4.15;;;;;;;;;;5111232;28;20042;-65
2021/09/24 12:09:12;;;;;;;5.53;3.95;;;;;;;;;;5111414;28;20027;-65
2021/09/24 12:11:41;;;;;;;4.50;4.03;;;;;;;;;;5111604;28;20540;-65
2021/09/24 12:14:08;;;;;;;5.53;3.95;;;;;;;;;;5111177;28;20020;-65
2021/09/24 12:16:40;;;;;;;8.38;4.03;;;;;;;;;;5112833;28;20111;-65
2021/09/24 12:19:14;;;;;;;5.88;3.97;;;;;;;;;;5114005;28;20110;-65
2021/09/24 12:21:48;;;;;;;7.22;4.90;;;;;;;;;;5111736;28;20085;-65
2021/09/24 12:24:14;;;;;;;6.13;4.07;;;;;;;;;;5106876;28;20475;-65
2021/09/24 12:26:41;;;;;;;6.18;4.40;;;;;;;;;;5105294;28;20038;-66
2021/09/24 12:29:07;;;;;;;5.50;4.10;;;;;;;;;;5110750;28;20036;-65
2021/09/24 12:31:33;;;;;;;5.80;3.80;;;;;;;;;;5112461;28;20399;-65
2021/09/24 12:33:59;;;;;;;5.07;3.80;;;;;;;;;;5112728;28;20383;-65
2021/09/24 12:36:25;;;;;;;7.22;3.97;;;;;;;;;;5110888;28;20093;-65
2021/09/24 12:38:52;;;;;;;7.80;4.13;;;;;;;;;;5109215;28;20034;-65
2021/09/24 12:41:18;;;;;;;7.93;4.03;;;;;;;;;;5110977;28;20517;-66
2021/09/24 12:43:46;;;;;;;6.97;3.80;;;;;;;;;;5110300;28;20020;-65
2021/09/24 12:46:13;;;;;;;6.82;4.10;;;;;;;;;;5114334;28;20027;-65
2021/09/24 12:48:44;;;;;;;4.80;3.77;;;;;;;;;;5112132;28;20080;-65
2021/09/24 12:51:10;;;;;;;7.25;3.50;;;;;;;;;;5110569;28;20486;-65
2021/09/24 12:53:38;;;;;;;7.13;4.00;;;;;;;;;;5110365;28;20028;-65
2021/09/24 12:56:04;;;;;;;7.65;3.67;;;;;;;;;;5110458;28;20295;-65
2021/09/24 12:58:38;;;;;;;5.50;3.95;;;;;;;;;;5112528;28;20478;-65
2021/09/24 13:01:05;;;;;;;4.50;3.67;;;;;;;;;;5113556;28;20028;-65
2021/09/24 13:03:32;;;;;;;5.33;3.83;;;;;;;;;;5109969;28;20032;-65
2021/09/24 13:06:01;;;;;;;4.80;3.70;;;;;;;;;;5110372;28;20276;-65
2021/09/24 13:08:28;;;;;;;7.20;3.55;;;;;;;;;;5110163;28;20055;-65
2021/09/24 13:10:55;;;;;;;5.75;3.70;;;;;;;;;;5109571;28;20068;-65
2021/09/24 13:13:23;;;;;;;6.30;4.28;;;;;;;;;;5112749;28;20054;-65
2021/09/24 13:15:49;;;;;;;5.45;3.97;;;;;;;;;;5111040;28;20036;-65
2021/09/24 13:18:15;;;;;;;4.93;3.65;;;;;;;;;;5104354;28;20029;-65
2021/09/24 13:20:41;;;;;;;7.07;4.07;;;;;;;;;;5110266;28;20403;-65
2021/09/24 13:23:07;;;;;;;6.40;3.83;;;;;;;;;;5107543;28;20027;-66
2021/09/24 13:25:33;;;;;;;4.45;3.67;;;;;;;;;;5110153;28;20032;-66
2021/09/24 13:27:59;;;;;;;6.05;4.18;;;;;;;;;;5111982;28;20464;-67
2021/09/24 13:30:25;;;;;;;5.45;4.20;;;;;;;;;;5111485;28;20032;-67
2021/09/24 13:32:51;;;;;;;5.03;4.05;;;;;;;;;;5109357;28;20035;-66
2021/09/24 13:35:17;;;;;;;6.97;4.18;;;;;;;;;;5109958;28;20088;-67
2021/09/24 13:37:43;;;;;;;5.70;4.13;;;;;;;;;;5109429;28;20536;-67
2021/09/24 13:40:10;;;;;;;7.82;4.22;;;;;;;;;;5098736;28;20026;-66
2021/09/24 13:42:37;;;;;;;4.88;4.00;;;;;;;;;;5109633;28;20538;-67
2021/09/24 13:45:04;;;;;;;8.50;4.53;;;;;;;;;;5102679;28;20040;-66
2021/09/24 13:47:30;;;;;;;6.07;4.57;;;;;;;;;;5099305;28;20394;-66
2021/09/24 13:49:56;;;;;;;6.55;5.10;;;;;;;;;;5108203;28;20047;-66
2021/09/24 13:52:22;;;;;;;7.80;4.25;;;;;;;;;;5102237;28;20028;-66
2021/09/24 13:54:48;;;;;;;6.90;4.50;;;;;;;;;;5110664;28;20024;-66
2021/09/24 13:57:14;;;;;;;6.32;4.78;;;;;;;;;;5108374;28;20038;-67
2021/09/24 13:59:40;;;;;;;7.20;4.32;;;;;;;;;;5102095;28;20490;-66
2021/09/24 14:02:06;;;;;;;7.38;4.50;;;;;;;;;;5108841;28;20084;-66
2021/09/24 14:04:32;;;;;;;7.30;4.75;;;;;;;;;;5111268;28;20030;-66
2021/09/24 14:06:57;;;;;;;11.30;5.20;;;;;;;;;;5111202;28;20433;-66
2021/09/24 14:09:23;;;;;;;8.13;4.45;;;;;;;;;;5108431;28;20028;-66
2021/09/24 14:11:49;;;;;;;7.70;4.88;;;;;;;;;;5109271;28;20360;-66
2021/09/24 14:14:15;;;;;;;7.35;4.70;;;;;;;;;;5105818;28;20472;-66
2021/09/24 14:16:42;;;;;;;6.38;4.72;;;;;;;;;;5109235;28;20105;-66
2021/09/24 14:19:08;;;;;;;6.55;4.90;;;;;;;;;;5112461;28;20042;-66
2021/09/24 14:21:34;;;;;;;6.55;4.70;;;;;;;;;;5108044;28;20190;-66
2021/09/24 14:24:02;;;;;;;6.43;4.60;;;;;;;;;;5104875;28;20123;-66
2021/09/24 14:26:27;;;;;;;6.07;4.50;;;;;;;;;;5109156;28;20027;-66
2021/09/24 14:28:54;;;;;;;7.10;4.38;;;;;;;;;;5108208;28;20127;-66
2021/09/24 14:31:20;;;;;;;10.27;4.40;;;;;;;;;;5110614;28;20023;-66
2021/09/24 14:33:46;;;;;;;7.22;4.80;;;;;;;;;;5109761;28;20028;-66